Time;durP1;ratioP1;P1;durP2;ratioP2;P2;SDS_P1;SDS_P2;PMS_P1;PMS_P2;Temp;Humidity;BMP_temperature;BMP_pressure;BME280_temperature;BME280_humidity;BME280_pressure;Samples;Min_cycle;Max_cycle;Signal;HPM_P1;HPM_P2
2022/01/03 00:00:56;;;;;;;;;;;12.10;99.90;;;;;;5075825;28;19915;-77
2022/01/03 00:03:22;;;;;;;;;;;12.10;99.90;;;;;;5075724;28;19916;-78
2022/01/03 00:05:47;;;;;;;;;;;12.10;99.90;;;;;;5075776;28;19912;-76
2022/01/03 00:08:13;;;;;;;;;;;12.10;99.90;;;;;;5075576;28;19912;-77
2022/01/03 00:10:38;;;;;;;;;;;12.10;99.90;;;;;;5075617;28;19908;-75
2022/01/03 00:13:04;;;;;;;;;;;12.10;99.90;;;;;;5075472;28;20359;-76
2022/01/03 00:15:30;;;;;;;;;;;12.10;99.90;;;;;;5075887;28;19909;-77
2022/01/03 00:17:56;;;;;;;;;;;12.10;99.90;;;;;;5075464;28;19974;-77
2022/01/03 00:20:22;;;;;;;;;;;12.10;99.90;;;;;;5075486;28;20369;-77
2022/01/03 00:23:01;;;;;;;;;;;12.20;99.90;;;;;;5075377;28;19908;-76
2022/01/03 00:25:27;;;;;;;;;;;12.20;99.90;;;;;;5074355;28;20000;-78
2022/01/03 00:28:07;;;;;;;;;;;12.20;99.90;;;;;;5075198;28;19971;-77
2022/01/03 00:30:37;;;;;;;;;;;12.10;99.90;;;;;;5075336;28;20329;-76
2022/01/03 00:33:03;;;;;;;;;;;12.10;99.90;;;;;;5075356;28;19913;-75
2022/01/03 00:35:29;;;;;;;;;;;12.20;99.90;;;;;;5075156;28;20377;-76
2022/01/03 00:37:56;;;;;;;;;;;12.10;99.90;;;;;;5074892;28;19913;-76
2022/01/03 00:40:22;;;;;;;;;;;12.20;99.90;;;;;;5075016;28;20297;-76
2022/01/03 00:42:48;;;;;;;;;;;12.10;99.90;;;;;;5075175;28;19909;-76
2022/01/03 00:45:14;;;;;;;;;;;12.20;99.90;;;;;;5073668;28;19909;-77
2022/01/03 00:47:39;;;;;;;;;;;12.10;99.90;;;;;;5075040;28;19919;-75
2022/01/03 00:50:09;;;;;;;;;;;12.20;99.90;;;;;;5074826;28;19915;-77
2022/01/03 00:52:35;;;;;;;;;;;12.10;99.90;;;;;;5075207;28;19915;-76
2022/01/03 00:55:01;;;;;;;;;;;12.10;99.90;;;;;;5074715;28;20280;-76
2022/01/03 00:57:47;;;;;;;;;;;12.10;99.90;;;;;;5074674;28;19962;-76
2022/01/03 01:00:13;;;;;;;;;;;12.10;99.90;;;;;;5063763;28;19958;-77
2022/01/03 01:02:45;;;;;;;;;;;12.10;99.90;;;;;;5074796;28;20392;-76
2022/01/03 01:05:10;;;;;;;;;;;12.10;99.90;;;;;;5074743;28;20003;-78
2022/01/03 01:07:38;;;;;;;;;;;12.10;99.90;;;;;;5074733;28;20396;-76
2022/01/03 01:10:05;;;;;;;;;;;12.10;99.90;;;;;;5074453;28;20007;-76
2022/01/03 01:12:31;;;;;;;;;;;12.20;99.90;;;;;;5072928;28;20008;-76
2022/01/03 01:14:57;;;;;;;;;;;12.10;99.90;;;;;;5074702;28;19942;-76
2022/01/03 01:17:25;;;;;;;;;;;12.10;99.90;;;;;;5074416;28;19973;-76
2022/01/03 01:19:51;;;;;;;;;;;12.10;99.90;;;;;;5074271;28;19908;-76
2022/01/03 01:22:19;;;;;;;;;;;12.10;99.90;;;;;;5074219;28;19916;-76
2022/01/03 01:24:59;;;;;;;;;;;12.10;99.90;;;;;;5074166;28;19916;-76
2022/01/03 01:30:14;;;;;;;;;;;12.10;99.90;;;;;;5074141;28;19990;-76
2022/01/03 01:32:41;;;;;;;;;;;12.20;99.90;;;;;;5074020;28;19917;-77
2022/01/03 01:35:07;;;;;;;;;;;12.20;99.90;;;;;;5072678;28;19939;-77
2022/01/03 01:37:33;;;;;;;;;;;12.20;99.90;;;;;;5073896;28;19913;-77
2022/01/03 01:39:59;;;;;;;;;;;12.10;99.90;;;;;;5073852;28;19916;-77
2022/01/03 01:42:25;;;;;;;;;;;12.10;99.90;;;;;;5072607;28;19909;-76
2022/01/03 01:44:51;;;;;;;;;;;12.10;99.90;;;;;;5073778;28;19909;-75
2022/01/03 01:47:17;;;;;;;;;;;12.10;99.90;;;;;;5074141;28;20003;-75
2022/01/03 01:49:47;;;;;;;;;;;12.10;99.90;;;;;;5073370;28;20373;-76
2022/01/03 01:52:23;;;;;;;;;;;12.10;99.90;;;;;;5073671;28;20000;-76
2022/01/03 01:54:50;;;;;;;;;;;12.20;99.90;;;;;;5073687;28;19908;-77
2022/01/03 01:57:19;;;;;;;;;;;12.20;99.90;;;;;;5073864;28;19908;-76
2022/01/03 01:59:48;;;;;;;;;;;12.10;99.90;;;;;;5073938;28;19916;-76
2022/01/03 02:02:21;;;;;;;;;;;12.20;99.90;;;;;;5073716;28;19912;-76
2022/01/03 02:04:47;;;;;;;;;;;12.20;99.90;;;;;;5073628;28;19951;-76
2022/01/03 02:07:12;;;;;;;;;;;12.20;99.90;;;;;;5073757;28;19912;-76
2022/01/03 02:09:41;;;;;;;;;;;12.20;99.90;;;;;;5073777;28;19913;-75
2022/01/03 02:12:13;;;;;;;;;;;12.20;99.90;;;;;;5073540;28;20058;-76
2022/01/03 02:14:38;;;;;;;;;;;12.20;99.90;;;;;;5071922;28;20010;-76
2022/01/03 02:17:04;;;;;;;;;;;12.10;99.90;;;;;;5073866;28;19940;-76
2022/01/03 02:19:30;;;;;;;;;;;12.20;99.90;;;;;;5073734;28;19915;-77
2022/01/03 02:21:55;;;;;;;;;;;12.20;99.90;;;;;;5073545;28;20406;-77
2022/01/03 02:24:21;;;;;;;;;;;12.20;99.90;;;;;;5073457;28;19908;-76
2022/01/03 02:26:47;;;;;;;;;;;12.20;99.90;;;;;;5073301;28;19909;-77
2022/01/03 02:29:12;;;;;;;;;;;12.30;99.90;;;;;;5073672;28;19970;-76
2022/01/03 02:31:38;;;;;;;;;;;12.20;99.90;;;;;;5073251;28;19908;-76
2022/01/03 02:34:04;;;;;;;;;;;12.30;99.90;;;;;;5073537;28;20436;-77
2022/01/03 02:36:30;;;;;;;;;;;12.20;99.90;;;;;;5073220;28;19963;-76
2022/01/03 02:38:56;;;;;;;;;;;12.20;99.90;;;;;;5073435;28;19909;-76
2022/01/03 02:41:22;;;;;;;;;;;12.20;99.90;;;;;;5073147;28;19934;-76
2022/01/03 02:43:49;;;;;;;;;;;12.20;99.90;;;;;;5071972;28;19962;-76
2022/01/03 02:46:14;;;;;;;;;;;12.20;99.90;;;;;;5073146;28;19909;-76
2022/01/03 02:48:40;;;;;;;;;;;12.20;99.90;;;;;;5073105;28;19920;-76
2022/01/03 02:51:06;;;;;;;;;;;12.20;99.90;;;;;;5073150;28;20402;-76
2022/01/03 02:53:31;;;;;;;;;;;12.10;99.90;;;;;;5073251;28;19908;-77
2022/01/03 02:55:57;;;;;;;;;;;12.10;99.90;;;;;;5071718;28;19915;-75
2022/01/03 02:58:22;;;;;;;;;;;12.10;99.90;;;;;;5073037;28;19916;-76
2022/01/03 03:00:49;;;;;;;;;;;12.10;99.90;;;;;;5073055;28;20292;-76
2022/01/03 03:03:16;;;;;;;;;;;12.10;99.90;;;;;;5075235;28;20418;-77
2022/01/03 03:05:42;;;;;;;;;;;12.10;99.90;;;;;;5076943;28;19909;-76
2022/01/03 03:08:08;;;;;;;;;;;12.10;99.90;;;;;;5076015;28;20443;-76
2022/01/03 03:10:34;;;;;;;;;;;12.10;99.90;;;;;;5075500;28;19954;-77
2022/01/03 03:13:00;;;;;;;;;;;12.10;99.90;;;;;;5076581;28;19920;-76
2022/01/03 03:15:25;;;;;;;;;;;12.10;99.90;;;;;;5076657;28;19959;-76
2022/01/03 03:17:51;;;;;;;;;;;12.10;99.90;;;;;;5076600;28;19909;-77
2022/01/03 03:20:20;;;;;;;;;;;12.10;99.90;;;;;;5076554;28;19987;-75
2022/01/03 03:22:49;;;;;;;;;;;12.00;99.90;;;;;;5075217;28;19909;-76
2022/01/03 03:25:19;;;;;;;;;;;12.00;99.90;;;;;;5075266;28;20292;-76
2022/01/03 03:27:47;;;;;;;;;;;12.10;99.90;;;;;;5076392;28;19912;-77
2022/01/03 03:30:20;;;;;;;;;;;12.10;99.90;;;;;;5075064;28;19934;-76
2022/01/03 03:32:46;;;;;;;;;;;12.10;99.90;;;;;;5076346;28;19908;-75
2022/01/03 03:35:12;;;;;;;;;;;12.10;99.90;;;;;;5076294;28;19918;-77
2022/01/03 03:37:38;;;;;;;;;;;12.10;99.90;;;;;;5076410;28;19908;-75
2022/01/03 03:40:04;;;;;;;;;;;12.10;99.90;;;;;;5076143;28;19908;-75
2022/01/03 03:42:30;;;;;;;;;;;12.10;99.90;;;;;;5076157;28;19909;-76
2022/01/03 03:44:56;;;;;;;;;;;12.10;99.90;;;;;;5076135;28;20282;-76
2022/01/03 03:47:21;;;;;;;;;;;12.10;99.90;;;;;;5076137;28;19915;-76
2022/01/03 03:49:47;;;;;;;;;;;12.10;99.90;;;;;;5076053;28;19920;-77
2022/01/03 03:52:12;;;;;;;;;;;12.10;99.90;;;;;;5074674;28;19919;-76
2022/01/03 03:54:38;;;;;;;;;;;12.10;99.90;;;;;;5076066;28;19915;-75
2022/01/03 03:57:04;;;;;;;;;;;12.10;99.90;;;;;;5075902;28;20288;-75
2022/01/03 03:59:30;;;;;;;;;;;12.10;99.90;;;;;;5075864;28;20350;-77
2022/01/03 04:01:57;;;;;;;;;;;12.10;99.90;;;;;;5075793;28;19931;-76
2022/01/03 04:04:23;;;;;;;;;;;12.10;99.90;;;;;;5075936;28;19963;-76
2022/01/03 04:06:48;;;;;;;;;;;12.00;99.90;;;;;;5075904;28;19908;-76
2022/01/03 04:09:14;;;;;;;;;;;12.10;99.90;;;;;;5075593;28;20389;-75
2022/01/03 04:11:40;;;;;;;;;;;12.10;99.90;;;;;;5075616;28;19999;-76
2022/01/03 04:14:05;;;;;;;;;;;12.10;99.90;;;;;;5074632;28;19926;-76
2022/01/03 04:16:32;;;;;;;;;;;12.10;99.90;;;;;;5075638;28;20258;-76
2022/01/03 04:18:58;;;;;;;;;;;12.10;99.90;;;;;;5074175;28;19951;-77
2022/01/03 04:21:25;;;;;;;;;;;12.10;99.90;;;;;;5075749;28;19916;-76
2022/01/03 04:23:51;;;;;;;;;;;12.10;99.90;;;;;;5075585;28;19908;-76
2022/01/03 04:26:16;;;;;;;;;;;12.10;99.90;;;;;;5075620;28;19908;-75
2022/01/03 04:28:42;;;;;;;;;;;12.10;99.90;;;;;;5075776;28;20364;-76
2022/01/03 04:31:07;;;;;;;;;;;12.10;99.90;;;;;;5075238;28;19908;-77
2022/01/03 04:33:33;;;;;;;;;;;12.00;99.90;;;;;;5074001;28;20332;-76
2022/01/03 04:35:59;;;;;;;;;;;12.10;99.90;;;;;;5075198;28;20388;-77
2022/01/03 04:38:25;;;;;;;;;;;12.10;99.90;;;;;;5075100;28;19909;-77
2022/01/03 04:40:51;;;;;;;;;;;12.10;99.90;;;;;;5074956;28;20297;-76
2022/01/03 04:43:16;;;;;;;;;;;12.10;99.90;;;;;;5073694;28;19908;-76
2022/01/03 04:45:42;;;;;;;;;;;12.10;99.90;;;;;;5075172;28;19913;-75
2022/01/03 04:48:07;;;;;;;;;;;12.10;99.90;;;;;;5075113;28;20017;-75
2022/01/03 04:50:33;;;;;;;;;;;12.10;99.90;;;;;;5074967;28;20000;-78
2022/01/03 04:52:59;;;;;;;;;;;12.10;99.90;;;;;;5073494;28;19908;-77
2022/01/03 04:55:24;;;;;;;;;;;12.10;99.90;;;;;;5074710;28;19914;-77
2022/01/03 04:57:50;;;;;;;;;;;12.10;99.90;;;;;;5074720;28;19916;-76
2022/01/03 05:00:16;;;;;;;;;;;12.10;99.90;;;;;;5074702;28;20287;-77
2022/01/03 05:02:42;;;;;;;;;;;12.10;99.90;;;;;;5074704;28;19909;-77
2022/01/03 05:05:07;;;;;;;;;;;12.10;99.90;;;;;;5074590;28;19944;-77
2022/01/03 05:07:33;;;;;;;;;;;12.10;99.90;;;;;;5074892;28;20429;-76
2022/01/03 05:09:59;;;;;;;;;;;12.10;99.90;;;;;;5074802;28;19973;-76
2022/01/03 05:12:24;;;;;;;;;;;12.10;99.90;;;;;;5074085;28;19920;-76
2022/01/03 05:14:50;;;;;;;;;;;12.20;99.90;;;;;;5074502;28;19917;-76
2022/01/03 05:17:15;;;;;;;;;;;12.20;99.90;;;;;;5073058;28;19997;-76
2022/01/03 05:19:41;;;;;;;;;;;12.20;99.90;;;;;;5072965;28;19908;-76
2022/01/03 05:22:08;;;;;;;;;;;12.20;99.90;;;;;;5073820;28;20196;-76
2022/01/03 05:24:35;;;;;;;;;;;12.10;99.90;;;;;;5073647;28;19908;-76
2022/01/03 05:27:01;;;;;;;;;;;12.10;99.90;;;;;;5073866;28;20326;-76
2022/01/03 05:29:28;;;;;;;;;;;12.10;99.90;;;;;;5074247;28;19959;-77
2022/01/03 05:31:54;;;;;;;;;;;12.10;99.90;;;;;;5074070;28;19909;-77
2022/01/03 05:34:19;;;;;;;;;;;12.10;99.90;;;;;;5074076;28;19916;-75
2022/01/03 05:36:45;;;;;;;;;;;12.10;99.90;;;;;;5072692;28;19909;-75
2022/01/03 05:39:11;;;;;;;;;;;12.10;99.90;;;;;;5073915;28;19943;-76
2022/01/03 05:41:37;;;;;;;;;;;12.20;99.90;;;;;;5073920;28;19943;-77
2022/01/03 05:44:02;;;;;;;;;;;12.20;99.90;;;;;;5073933;28;20418;-76
2022/01/03 05:46:28;;;;;;;;;;;12.20;99.90;;;;;;5073863;28;20408;-75
2022/01/03 05:48:54;;;;;;;;;;;12.10;99.90;;;;;;5074094;28;19957;-76
2022/01/03 05:51:19;;;;;;;;;;;12.10;99.90;;;;;;5074007;28;19914;-76
2022/01/03 05:53:45;;;;;;;;;;;12.10;99.90;;;;;;5072472;28;20280;-75
2022/01/03 05:56:10;;;;;;;;;;;12.10;99.90;;;;;;5073753;28;20345;-75
2022/01/03 05:58:36;;;;;;;;;;;12.00;99.90;;;;;;5074102;28;19908;-77
2022/01/03 06:01:02;;;;;;;;;;;12.10;99.90;;;;;;5073629;28;19908;-76
2022/01/03 06:03:33;;;;;;;;;;;12.10;99.90;;;;;;5073896;28;19908;-78
2022/01/03 06:08:27;;;;;;;;;;;12.10;99.90;;;;;;5073545;28;20359;-75
2022/01/03 06:10:53;;;;;;;;;;;12.00;99.90;;;;;;5073509;28;19947;-76
2022/01/03 06:13:19;;;;;;;;;;;12.00;99.90;;;;;;5073380;28;19921;-76
2022/01/03 06:15:44;;;;;;;;;;;11.90;99.90;;;;;;5073516;28;19964;-75
2022/01/03 06:18:14;;;;;;;;;;;11.90;99.90;;;;;;5073649;28;19908;-77
2022/01/03 06:20:40;;;;;;;;;;;12.00;99.90;;;;;;5073420;28;19909;-76
2022/01/03 06:23:07;;;;;;;;;;;11.90;99.90;;;;;;5073453;28;19908;-76
2022/01/03 06:25:33;;;;;;;;;;;11.90;99.90;;;;;;5073465;28;20078;-75
2022/01/03 06:27:58;;;;;;;;;;;11.90;99.90;;;;;;5073741;28;20017;-76
2022/01/03 06:30:24;;;;;;;;;;;11.90;99.90;;;;;;5073678;28;20434;-78
2022/01/03 06:32:49;;;;;;;;;;;11.80;99.90;;;;;;5073354;28;19908;-77
2022/01/03 06:35:15;;;;;;;;;;;11.80;99.90;;;;;;5073450;28;19909;-75
2022/01/03 06:37:41;;;;;;;;;;;11.80;99.90;;;;;;5075126;28;19948;-76
2022/01/03 06:40:06;;;;;;;;;;;11.80;99.90;;;;;;5077252;28;19934;-77
2022/01/03 06:42:32;;;;;;;;;;;11.80;99.90;;;;;;5077564;28;19915;-75
2022/01/03 06:44:58;;;;;;;;;;;11.80;99.90;;;;;;5077337;28;19915;-75
2022/01/03 06:47:24;;;;;;;;;;;11.80;99.90;;;;;;5077232;28;19972;-76
2022/01/03 06:49:50;;;;;;;;;;;11.80;99.90;;;;;;5077183;28;19913;-77
2022/01/03 06:52:15;;;;;;;;;;;11.90;99.90;;;;;;5077297;28;20343;-77
2022/01/03 06:54:41;;;;;;;;;;;11.80;99.90;;;;;;5077310;28;20419;-78
2022/01/03 06:57:07;;;;;;;;;;;11.80;99.90;;;;;;5077052;28;19909;-77
2022/01/03 06:59:33;;;;;;;;;;;11.80;99.90;;;;;;5077065;28;19913;-75
2022/01/03 07:01:59;;;;;;;;;;;11.80;99.90;;;;;;5077125;28;19917;-76
2022/01/03 07:04:24;;;;;;;;;;;11.70;99.90;;;;;;5077057;28;19908;-76
2022/01/03 07:06:50;;;;;;;;;;;11.80;99.90;;;;;;5077042;28;19908;-75
2022/01/03 07:09:15;;;;;;;;;;;11.70;99.90;;;;;;5076723;28;19913;-76
2022/01/03 07:11:41;;;;;;;;;;;11.80;99.90;;;;;;5076824;28;20355;-76
2022/01/03 07:19:35;;;;;;;;;;;11.80;99.90;;;;;;5076850;28;20301;-76
2022/01/03 07:22:03;;;;;;;;;;;11.80;99.90;;;;;;5076883;28;19908;-76
2022/01/03 07:24:29;;;;;;;;;;;11.80;99.90;;;;;;5076635;28;19912;-77
2022/01/03 07:26:55;;;;;;;;;;;11.80;99.90;;;;;;5076510;28;19933;-76
2022/01/03 07:29:20;;;;;;;;;;;11.80;99.90;;;;;;5076297;28;20454;-76
2022/01/03 07:31:46;;;;;;;;;;;11.80;99.90;;;;;;5075093;28;19958;-77
2022/01/03 07:34:12;;;;;;;;;;;11.80;99.90;;;;;;5076672;28;20011;-76
2022/01/03 07:36:37;;;;;;;;;;;11.90;99.90;;;;;;5076842;28;19954;-76
2022/01/03 07:39:03;;;;;;;;;;;11.80;99.90;;;;;;5076320;28;19913;-77
2022/01/03 07:41:29;;;;;;;;;;;11.80;99.90;;;;;;5076221;28;19948;-75
2022/01/03 07:43:55;;;;;;;;;;;11.80;99.90;;;;;;5074957;28;20342;-77
2022/01/03 07:46:20;;;;;;;;;;;11.80;99.90;;;;;;5076190;28;19912;-75
2022/01/03 07:48:46;;;;;;;;;;;11.80;99.90;;;;;;5075100;28;19913;-76
2022/01/03 07:51:11;;;;;;;;;;;11.80;99.90;;;;;;5076124;28;19912;-76
2022/01/03 07:53:37;;;;;;;;;;;11.80;99.90;;;;;;5076127;28;19908;-76
2022/01/03 07:56:05;;;;;;;;;;;11.80;99.90;;;;;;5076003;28;19919;-76
2022/01/03 07:58:30;;;;;;;;;;;11.80;99.90;;;;;;5075920;28;19916;-76
2022/01/03 08:00:56;;;;;;;;;;;11.90;99.90;;;;;;5075902;28;20281;-76
2022/01/03 08:03:22;;;;;;;;;;;11.90;99.90;;;;;;5076118;28;19908;-76
2022/01/03 08:05:48;;;;;;;;;;;11.90;99.90;;;;;;5075813;28;19958;-76
2022/01/03 08:08:14;;;;;;;;;;;11.90;99.90;;;;;;5075772;28;19916;-76
2022/01/03 08:10:41;;;;;;;;;;;12.00;99.90;;;;;;5075717;28;19962;-76
2022/01/03 08:13:07;;;;;;;;;;;12.00;99.90;;;;;;5075840;28;20292;-77
2022/01/03 08:15:32;;;;;;;;;;;12.10;99.90;;;;;;5075620;28;19913;-77
2022/01/03 08:17:58;;;;;;;;;;;12.10;99.90;;;;;;5075586;28;19908;-76
2022/01/03 08:20:25;;;;;;;;;;;12.20;99.90;;;;;;5075605;28;19909;-75
2022/01/03 08:22:51;;;;;;;;;;;12.20;99.90;;;;;;5075461;28;19909;-76
2022/01/03 08:25:17;;;;;;;;;;;12.20;99.90;;;;;;5075614;28;20302;-76
2022/01/03 08:27:43;;;;;;;;;;;12.30;99.90;;;;;;5075450;28;19912;-76
2022/01/03 08:30:08;;;;;;;;;;;12.30;99.90;;;;;;5075385;28;19909;-77
2022/01/03 08:32:34;;;;;;;;;;;12.30;99.90;;;;;;5073977;28;19946;-76
2022/01/03 08:35:00;;;;;;;;;;;12.30;99.90;;;;;;5075216;28;19908;-77
2022/01/03 08:37:27;;;;;;;;;;;12.30;99.90;;;;;;5075182;28;20364;-77
2022/01/03 08:39:52;;;;;;;;;;;12.40;99.90;;;;;;5075006;28;19995;-75
2022/01/03 08:42:25;;;;;;;;;;;12.50;99.90;;;;;;5075082;28;19940;-77
2022/01/03 08:44:51;;;;;;;;;;;12.50;99.90;;;;;;5075162;28;19991;-76
2022/01/03 08:47:16;;;;;;;;;;;12.50;99.90;;;;;;5075235;28;19959;-76
2022/01/03 08:49:42;;;;;;;;;;;12.50;99.90;;;;;;5073599;28;20073;-76
2022/01/03 08:52:10;;;;;;;;;;;12.50;99.90;;;;;;5073550;28;20009;-77
2022/01/03 08:54:37;;;;;;;;;;;12.60;99.90;;;;;;5074854;28;20365;-76
2022/01/03 08:57:02;;;;;;;;;;;12.70;99.90;;;;;;5073453;28;19962;-77
2022/01/03 08:59:28;;;;;;;;;;;12.70;99.90;;;;;;5074984;28;19908;-76
2022/01/03 09:01:54;;;;;;;;;;;12.70;99.90;;;;;;5074689;28;19940;-75
2022/01/03 09:04:19;;;;;;;;;;;12.80;99.90;;;;;;5073280;28;19916;-76
2022/01/03 09:06:45;;;;;;;;;;;12.70;99.90;;;;;;5074644;28;19916;-77
2022/01/03 09:09:12;;;;;;;;;;;12.80;99.90;;;;;;5074884;28;19913;-76
2022/01/03 09:11:37;;;;;;;;;;;12.70;99.90;;;;;;5074421;28;19908;-77
2022/01/03 09:14:04;;;;;;;;;;;12.80;99.90;;;;;;5073972;28;20058;-76
2022/01/03 09:16:31;;;;;;;;;;;12.80;99.90;;;;;;5074690;28;20420;-78
2022/01/03 09:18:57;;;;;;;;;;;12.90;99.90;;;;;;5074332;28;19974;-78
2022/01/03 09:21:25;;;;;;;;;;;12.90;99.90;;;;;;5074468;28;19912;-76
2022/01/03 09:24:04;;;;;;;;;;;12.90;99.90;;;;;;5074506;28;19935;-78
2022/01/03 09:29:18;;;;;;;;;;;13.10;99.90;;;;;;5073823;28;19935;-76
2022/01/03 09:31:45;;;;;;;;;;;13.10;99.90;;;;;;5074036;28;19915;-76
2022/01/03 09:34:12;;;;;;;;;;;13.10;99.90;;;;;;5072685;28;20381;-78
2022/01/03 09:36:37;;;;;;;;;;;13.10;99.90;;;;;;5074061;28;19908;-76
2022/01/03 09:39:04;;;;;;;;;;;13.20;99.90;;;;;;5072594;28;19919;-75
2022/01/03 09:41:31;;;;;;;;;;;13.20;99.90;;;;;;5072522;28;19908;-76
2022/01/03 09:44:09;;;;;;;;;;;13.30;99.90;;;;;;5074334;28;19948;-76
2022/01/03 09:46:39;;;;;;;;;;;13.20;99.90;;;;;;5072310;28;19908;-76
2022/01/03 09:49:06;;;;;;;;;;;13.00;99.90;;;;;;5072541;28;19912;-77
2022/01/03 09:51:33;;;;;;;;;;;13.10;99.90;;;;;;5073811;28;19908;-75
2022/01/03 09:54:04;;;;;;;;;;;13.10;99.90;;;;;;5073788;28;19908;-75
2022/01/03 09:56:35;;;;;;;;;;;13.10;99.90;;;;;;5073681;28;19908;-76
2022/01/03 09:59:02;;;;;;;;;;;13.20;99.90;;;;;;5074052;28;19908;-76
2022/01/03 10:01:33;;;;;;;;;;;13.30;99.90;;;;;;5072304;28;19932;-77
2022/01/03 10:04:00;;;;;;;;;;;13.40;99.90;;;;;;5072292;28;19908;-75
2022/01/03 10:06:31;;;;;;;;;;;13.40;99.90;;;;;;5073741;28;19909;-76
2022/01/03 10:08:59;;;;;;;;;;;13.50;99.90;;;;;;5071860;28;19912;-76
2022/01/03 10:11:26;;;;;;;;;;;13.70;99.90;;;;;;5073069;28;19915;-76
2022/01/03 10:13:53;;;;;;;;;;;13.70;99.90;;;;;;5071948;28;19920;-75
2022/01/03 10:16:20;;;;;;;;;;;13.80;99.90;;;;;;5073451;28;20412;-77
2022/01/03 10:18:47;;;;;;;;;;;13.70;99.90;;;;;;5073640;28;19908;-76
2022/01/03 10:21:32;;;;;;;;;;;13.80;99.90;;;;;;5072034;28;19923;-77
2022/01/03 10:23:58;;;;;;;;;;;13.80;99.90;;;;;;5071796;28;19908;-76
2022/01/03 10:26:25;;;;;;;;;;;13.60;99.90;;;;;;5073342;28;20288;-75
2022/01/03 10:29:12;;;;;;;;;;;13.70;99.90;;;;;;5071929;28;19913;-77
2022/01/03 10:31:40;;;;;;;;;;;13.60;99.90;;;;;;5073716;28;19916;-76
2022/01/03 10:34:11;;;;;;;;;;;13.50;99.90;;;;;;5073414;28;19908;-76
2022/01/03 10:36:38;;;;;;;;;;;13.30;99.90;;;;;;5073350;28;19962;-76
2022/01/03 10:39:12;;;;;;;;;;;13.20;99.90;;;;;;5073502;28;19908;-76
2022/01/03 10:41:40;;;;;;;;;;;13.20;99.90;;;;;;5073344;28;20016;-78
2022/01/03 10:44:09;;;;;;;;;;;13.30;99.90;;;;;;5073780;28;19935;-76
2022/01/03 10:46:36;;;;;;;;;;;13.30;99.90;;;;;;5073203;28;19931;-75
2022/01/03 10:49:16;;;;;;;;;;;13.30;99.90;;;;;;5073400;28;20376;-75
2022/01/03 10:51:46;;;;;;;;;;;13.20;99.90;;;;;;5073169;28;20376;-75
2022/01/03 10:54:13;;;;;;;;;;;13.20;99.90;;;;;;5073332;28;20000;-77
2022/01/03 10:56:44;;;;;;;;;;;13.10;99.90;;;;;;5071813;28;19974;-76
2022/01/03 10:59:14;;;;;;;;;;;13.20;99.90;;;;;;5071747;28;19916;-77
2022/01/03 11:01:42;;;;;;;;;;;13.20;99.90;;;;;;5073115;28;20368;-78
2022/01/03 11:04:11;;;;;;;;;;;13.20;99.90;;;;;;5073023;28;19948;-77
2022/01/03 11:11:58;;;;;;;;;;;13.30;99.90;;;;;;5072716;28;19916;-77
2022/01/03 11:14:39;;;;;;;;;;;13.20;99.90;;;;;;5072561;28;19949;-76
2022/01/03 11:17:32;;;;;;;;;;;13.30;99.90;;;;;;5073262;28;19909;-75
2022/01/03 11:20:00;;;;;;;;;;;13.10;99.90;;;;;;5073094;28;19915;-75
2022/01/03 11:22:39;;;;;;;;;;;13.20;99.90;;;;;;5072827;28;20312;-76
2022/01/03 11:25:07;;;;;;;;;;;13.20;99.90;;;;;;5076254;28;19909;-76
2022/01/03 11:27:38;;;;;;;;;;;13.30;99.90;;;;;;5075196;28;19908;-76
2022/01/03 11:30:09;;;;;;;;;;;13.40;99.90;;;;;;5076697;28;20011;-76
2022/01/03 11:32:39;;;;;;;;;;;13.40;99.90;;;;;;5076424;28;19915;-77
2022/01/03 11:35:06;;;;;;;;;;;13.50;99.90;;;;;;5076343;28;20331;-76
2022/01/03 11:37:35;;;;;;;;;;;13.40;99.90;;;;;;5076294;28;19915;-75
2022/01/03 11:40:03;;;;;;;;;;;13.60;99.90;;;;;;5076386;28;19944;-76
2022/01/03 11:42:32;;;;;;;;;;;13.60;99.90;;;;;;5076262;28;19946;-76
2022/01/03 11:44:59;;;;;;;;;;;13.50;99.90;;;;;;5076157;28;19916;-77
2022/01/03 11:47:30;;;;;;;;;;;13.50;99.90;;;;;;5076342;28;19909;-75
2022/01/03 11:49:56;;;;;;;;;;;13.60;99.90;;;;;;5076390;28;20383;-77
2022/01/03 11:52:29;;;;;;;;;;;13.50;99.90;;;;;;5076337;28;20018;-76
2022/01/03 11:54:59;;;;;;;;;;;13.30;99.90;;;;;;5076107;28;19915;-77
2022/01/03 11:57:45;;;;;;;;;;;13.30;99.90;;;;;;5075959;28;19962;-79
2022/01/03 12:05:49;;;;;;;;;;;13.10;99.90;;;;;;5075581;28;19939;-79
2022/01/03 12:08:38;;;;;;;;;;;13.20;99.90;;;;;;5075924;28;19942;-80
2022/01/03 12:11:18;;;;;;;;;;;13.00;99.90;;;;;;5075691;28;19920;-81
2022/01/03 12:13:47;;;;;;;;;;;12.90;99.90;;;;;;5075477;28;19924;-79
2022/01/03 12:16:16;;;;;;;;;;;12.90;99.90;;;;;;5075643;28;19995;-77
2022/01/03 12:19:08;;;;;;;;;;;12.70;99.90;;;;;;5075610;28;20007;-81
2022/01/03 12:21:50;;;;;;;;;;;12.70;99.90;;;;;;5068465;28;20007;-82
2022/01/03 12:24:32;;;;;;;;;;;12.70;99.90;;;;;;5074141;28;20389;-81
2022/01/03 12:27:14;;;;;;;;;;;12.60;99.90;;;;;;5075762;28;20285;-80
2022/01/03 12:29:53;;;;;;;;;;;12.60;99.90;;;;;;5075549;28;19912;-78
2022/01/03 12:32:26;;;;;;;;;;;12.50;99.90;;;;;;5075811;28;19908;-79
2022/01/03 12:35:12;;;;;;;;;;;12.50;99.90;;;;;;5075026;28;20339;-80
2022/01/03 12:37:47;;;;;;;;;;;12.50;99.90;;;;;;5075263;28;19916;-80
2022/01/03 12:40:15;;;;;;;;;;;12.40;99.90;;;;;;5073626;28;19912;-83
2022/01/03 12:42:56;;;;;;;;;;;12.40;99.90;;;;;;5075201;28;19909;-80
2022/01/03 12:45:29;;;;;;;;;;;12.40;99.90;;;;;;5075437;28;19915;-79
2022/01/03 12:47:55;;;;;;;;;;;12.40;99.90;;;;;;5075098;28;19916;-80
2022/01/03 12:50:22;;;;;;;;;;;12.50;99.90;;;;;;5075009;28;19908;-80
2022/01/03 12:52:48;;;;;;;;;;;12.50;99.90;;;;;;5073624;28;20327;-79
2022/01/03 12:55:33;;;;;;;;;;;12.50;99.90;;;;;;5075200;28;19958;-79
2022/01/03 12:57:58;;;;;;;;;;;12.40;99.90;;;;;;5074904;28;19915;-79
2022/01/03 13:00:44;;;;;;;;;;;12.30;99.90;;;;;;5075022;28;19908;-85
2022/01/03 13:03:21;;;;;;;;;;;12.40;99.90;;;;;;5074724;28;20428;-80
2022/01/03 13:06:16;;;;;;;;;;;12.40;99.90;;;;;;5074927;28;19973;-80
2022/01/03 13:08:48;;;;;;;;;;;12.40;99.90;;;;;;5055808;28;19990;-79
2022/01/03 13:11:18;;;;;;;;;;;12.50;99.90;;;;;;5074702;28;19913;-81
2022/01/03 13:13:46;;;;;;;;;;;12.60;99.90;;;;;;5074449;28;19928;-80
2022/01/03 13:16:35;;;;;;;;;;;12.60;99.90;;;;;;5074621;28;20022;-80
2022/01/03 13:19:01;;;;;;;;;;;12.60;99.90;;;;;;5066084;28;19916;-81
2022/01/03 13:24:22;;;;;;;;;;;12.80;99.90;;;;;;5074357;28;20330;-79
2022/01/03 13:26:51;;;;;;;;;;;12.90;99.90;;;;;;5074476;28;19915;-79
2022/01/03 13:29:16;;;;;;;;;;;12.80;99.90;;;;;;5074183;28;19913;-81
2022/01/03 13:31:42;;;;;;;;;;;12.90;99.90;;;;;;5074381;28;20377;-79
2022/01/03 13:34:07;;;;;;;;;;;12.90;99.90;;;;;;5072850;28;19915;-81
2022/01/03 13:36:37;;;;;;;;;;;12.80;99.90;;;;;;5074111;28;19912;-80
2022/01/03 13:39:07;;;;;;;;;;;12.80;99.90;;;;;;5074170;28;19995;-78
2022/01/03 13:41:34;;;;;;;;;;;12.70;99.90;;;;;;5074022;28;20359;-81
2022/01/03 13:44:00;;;;;;;;;;;12.70;99.90;;;;;;5074028;28;20430;-78
2022/01/03 13:49:11;;;;;;;;;;;12.60;99.90;;;;;;5073659;28;20391;-79
2022/01/03 13:51:37;;;;;;;;;;;12.60;99.90;;;;;;5074309;28;19948;-80
2022/01/03 13:54:06;;;;;;;;;;;12.60;99.90;;;;;;5073982;28;19920;-79
2022/01/03 13:56:41;;;;;;;;;;;12.60;99.90;;;;;;5073834;28;19919;-80
2022/01/03 13:59:08;;;;;;;;;;;12.60;99.90;;;;;;5072487;28;19909;-78
2022/01/03 14:01:35;;;;;;;;;;;12.70;99.90;;;;;;5073719;28;19909;-80
2022/01/03 14:04:02;;;;;;;;;;;12.60;99.90;;;;;;5073879;28;19933;-82
2022/01/03 14:06:29;;;;;;;;;;;12.60;99.90;;;;;;5073786;28;19916;-82
2022/01/03 14:08:55;;;;;;;;;;;12.60;99.90;;;;;;5073648;28;19913;-78
2022/01/03 14:11:32;;;;;;;;;;;12.70;99.90;;;;;;5073632;28;19909;-80
2022/01/03 14:14:07;;;;;;;;;;;12.70;99.90;;;;;;5073395;28;19928;-80
2022/01/03 14:16:49;;;;;;;;;;;12.70;99.90;;;;;;5073681;28;19995;-81
2022/01/03 14:19:20;;;;;;;;;;;12.70;99.90;;;;;;5073597;28;19915;-79
2022/01/03 14:21:50;;;;;;;;;;;12.70;99.90;;;;;;5073977;28;19909;-79
2022/01/03 14:24:18;;;;;;;;;;;12.70;99.90;;;;;;5073444;28;19908;-81
2022/01/03 14:26:58;;;;;;;;;;;12.70;99.90;;;;;;5072070;28;19912;-79
2022/01/03 14:29:34;;;;;;;;;;;12.70;99.90;;;;;;5073456;28;19924;-80
2022/01/03 14:32:11;;;;;;;;;;;12.70;99.90;;;;;;5071779;28;19958;-78
2022/01/03 14:34:38;;;;;;;;;;;12.70;99.90;;;;;;5073491;28;19948;-79
2022/01/03 14:37:08;;;;;;;;;;;12.70;99.90;;;;;;5073596;28;19923;-79
2022/01/03 14:39:51;;;;;;;;;;;12.80;99.90;;;;;;5073692;28;19916;-80
2022/01/03 14:42:33;;;;;;;;;;;12.80;99.90;;;;;;5071905;28;19909;-79
2022/01/03 14:45:16;;;;;;;;;;;12.80;99.90;;;;;;5073291;28;19909;-82
2022/01/03 14:47:43;;;;;;;;;;;12.80;99.90;;;;;;5073217;28;19908;-79
2022/01/03 14:50:14;;;;;;;;;;;12.90;99.90;;;;;;5073092;28;20008;-81
2022/01/03 14:52:41;;;;;;;;;;;12.90;99.90;;;;;;5073219;28;19908;-80